KBRD/BRD METAR and TAF weather

Enter ICAO airport designator
Station Type Date Time Source
KBRD METAR 2021/07/30 06:53 UTC NOAA

KBRD 300653Z AUTO 00000KT 2SM HZ OVC032 17/12 A3018 RMK AO2 SLP217 T01670122


Station Type Date Time Source
KBRD Decoded METAR 2021/07/30 06:53 UTC NOAA

BRAINERD-CROW WING CO AIRPORT , MN, United States (KBRD) 46-24N 94-08W 372M
Jul 30, 2021 - 02:53 AM EDT / 2021.07.30 0653 UTC
Wind: Calm:0
Visibility: 2 mile(s):0
Sky conditions: overcast
Weather: haze
Temperature: 62.1 F (16.7 C)
Dew Point: 54.0 F (12.2 C)
Relative Humidity: 74%
Pressure (altimeter): 30.18 in. Hg (1022 hPa)
ob: KBRD 300653Z AUTO 00000KT 2SM HZ OVC032 17/12 A3018 RMK AO2 SLP217 T01670122
cycle: 7

Station Type Date Time Source
KBRD TAF 2021/07/30 07:54 UTC NOAA

TAF
AMD KBRD 300652Z 3007/3106 VRB03KT 3SM HZ BKN035
TEMPO 3007/3010 2SM HZ
FM301600 21007KT 6SM HZ FEW250

Example: see airport list